Main page
METAR-TAF:

METAR-TAF

Airports :

Montpellier–Méditerranée Airport

Montpellier, France

latitude: 43-35N, longitude: 003-58E, elevation: 5 m

Current weather observation

The report was made 11 minutes ago, at 23:00 UTC
Wind 5 kt from the West/Northwest
Temperature 13°C
Humidity 67%
Pressure 1019 hPa
Visibility 10 km or more
no clouds below 1500 m and no cumulonimbus

METAR: LFMT 272300Z AUTO 29005KT CAVOK 13/07 Q1019 NOSIG

Time: 00:11 (23:11 UTC)

Forecast

The report was made 3 hours and 11 minutes ago, at 20:00 UTC
Forecast valid from 27 at 21 UTC to 28 at 21 UTC
Wind 10 kt from the West
Visibility 10 km or more
no clouds below 1500 m and no cumulonimbus
Temporary
from 28 at 02 UTC to 28 at 06 UTC
Wind 5 kt from the Southwest
Broken clouds at a height of 2500 ft
Temporary
from 28 at 11 UTC to 28 at 15 UTC
Wind 15 kt from the West/Northwest with gusts up to 25 kt

TAF: LFMT 272000Z 2721/2821 28010KT CAVOK TEMPO 2802/2806 22005KT BKN025 TEMPO 2811/2815 29015G25KT

Weather observations and forecasts of more than 4000 airports (METAR and TAF reports).

The available stations are represented by yellow and red dots on the map.

Hover mouse over dot to see the name of the station.

Then click to see weather observations and forecasts.

To change the map : click on the green buttons with a black cross to zoom in, on the green button with a dash to zoom out, or on the green arrows for adjacent maps.


METAR-TAF: